createdAt,value
2018-07-20T00:00:23.014Z,4.97
2018-07-20T00:02:50.845Z,5.57
2018-07-20T00:05:17.900Z,5.33
2018-07-20T00:07:44.884Z,6.33
2018-07-20T00:10:11.952Z,5.50
2018-07-20T00:12:38.982Z,5.27
2018-07-20T00:15:05.972Z,5.33
2018-07-20T00:17:32.965Z,5.90
2018-07-20T00:19:59.999Z,6.10
2018-07-20T00:22:27.797Z,5.80
2018-07-20T00:24:54.787Z,5.37
2018-07-20T00:27:21.838Z,5.00
2018-07-20T00:32:27.354Z,5.57
2018-07-20T00:34:54.337Z,5.23
2018-07-20T00:37:21.316Z,5.77
2018-07-20T00:39:48.342Z,5.40
2018-07-20T00:42:15.344Z,5.63
2018-07-20T00:44:43.043Z,5.83
2018-07-20T00:47:10.097Z,6.70
2018-07-20T00:49:37.141Z,6.23
2018-07-20T00:52:04.185Z,5.60
2018-07-20T00:54:32.797Z,5.97
2018-07-20T00:56:59.771Z,6.73
2018-07-20T00:59:26.763Z,5.57
2018-07-20T01:01:54.275Z,5.87
2018-07-20T01:04:21.259Z,6.23
2018-07-20T01:06:48.235Z,6.00
2018-07-20T01:09:15.289Z,6.43
2018-07-20T01:11:42.263Z,6.50
2018-07-20T01:14:09.248Z,6.60
2018-07-20T01:16:36.368Z,6.10
2018-07-20T01:19:03.361Z,6.67
2018-07-20T01:21:30.338Z,5.90
2018-07-20T01:23:57.391Z,6.20
2018-07-20T01:26:24.376Z,5.77
2018-07-20T01:28:51.435Z,5.50
2018-07-20T01:31:18.477Z,5.40
2018-07-20T01:33:45.462Z,5.47
2018-07-20T01:36:12.447Z,5.40
2018-07-20T01:38:39.481Z,5.30
2018-07-20T01:41:06.467Z,5.90
2018-07-20T01:43:33.447Z,5.23
2018-07-20T01:46:00.494Z,5.87
2018-07-20T01:51:06.910Z,6.03
2018-07-20T01:53:33.956Z,6.20
2018-07-20T01:56:00.935Z,6.00
2018-07-20T01:58:31.267Z,5.87
2018-07-20T02:00:58.240Z,5.47
2018-07-20T02:03:25.222Z,5.70
2018-07-20T02:05:52.263Z,5.47
2018-07-20T02:08:19.249Z,5.83
2018-07-20T02:10:46.248Z,5.80
2018-07-20T02:13:13.276Z,5.53
2018-07-20T02:15:40.258Z,6.27
2018-07-20T02:18:07.323Z,5.27
2018-07-20T02:20:34.342Z,5.50
2018-07-20T02:23:01.330Z,5.83
2018-07-20T02:25:28.324Z,5.63
2018-07-20T02:27:55.347Z,6.50
2018-07-20T02:30:22.332Z,5.70
2018-07-20T02:32:49.317Z,5.53
2018-07-20T02:35:16.377Z,5.63
2018-07-20T02:37:43.371Z,5.50
2018-07-20T02:40:10.507Z,6.00
2018-07-20T02:42:37.624Z,5.80
2018-07-20T02:45:04.606Z,6.43
2018-07-20T02:47:31.629Z,6.47
2018-07-20T02:49:58.697Z,5.73
2018-07-20T02:52:25.725Z,5.70
2018-07-20T02:54:55.403Z,5.93
2018-07-20T02:57:20.546Z,5.90
2018-07-20T02:59:47.611Z,5.73
2018-07-20T03:02:14.590Z,5.73
2018-07-20T03:04:41.623Z,5.43
2018-07-20T03:07:08.616Z,6.10
2018-07-20T03:12:16.143Z,6.10
2018-07-20T03:14:43.125Z,5.90
2018-07-20T03:17:10.111Z,5.80
2018-07-20T03:19:37.819Z,6.13
2018-07-20T03:22:04.800Z,5.63
2018-07-20T03:24:32.754Z,5.53
2018-07-20T03:26:59.790Z,6.27
2018-07-20T03:29:26.777Z,6.27
2018-07-20T03:31:53.775Z,6.53
2018-07-20T03:34:21.774Z,5.70
2018-07-20T03:36:48.833Z,6.17
2018-07-20T03:39:15.816Z,6.27
2018-07-20T03:41:42.871Z,6.80
2018-07-20T03:44:09.849Z,6.63
2018-07-20T03:46:36.830Z,6.00
2018-07-20T03:49:03.877Z,5.83
2018-07-20T03:51:36.596Z,6.43
2018-07-20T03:54:03.659Z,6.53
2018-07-20T03:56:30.644Z,6.30
2018-07-20T03:58:57.625Z,6.87
2018-07-20T04:01:24.953Z,6.50
2018-07-20T04:03:51.890Z,6.23
2018-07-20T04:06:18.912Z,6.37
2018-07-20T04:08:45.942Z,6.20
2018-07-20T04:11:12.934Z,6.23
2018-07-20T04:13:39.938Z,5.97
2018-07-20T04:16:06.998Z,6.53
2018-07-20T04:18:34.625Z,6.67
2018-07-20T04:21:01.652Z,6.47
2018-07-20T04:23:28.710Z,6.13
2018-07-20T04:28:35.365Z,6.50
2018-07-20T04:31:02.363Z,6.03
2018-07-20T04:33:29.343Z,5.60
2018-07-20T04:35:56.446Z,6.00
2018-07-20T04:38:23.431Z,6.53
2018-07-20T04:40:50.563Z,6.00
2018-07-20T04:43:19.216Z,6.93
2018-07-20T04:45:46.196Z,6.70
2018-07-20T04:48:14.127Z,5.83
2018-07-20T04:50:41.184Z,6.17
2018-07-20T04:53:08.178Z,6.23
2018-07-20T04:55:35.306Z,6.47
2018-07-20T04:58:02.298Z,6.43
2018-07-20T05:00:29.531Z,6.33
2018-07-20T05:02:56.516Z,6.43
2018-07-20T05:05:25.468Z,5.90
2018-07-20T05:07:50.615Z,6.23
2018-07-20T05:10:18.353Z,7.00
2018-07-20T05:12:45.634Z,7.03
2018-07-20T05:15:12.719Z,6.10
2018-07-20T05:17:39.692Z,6.60
2018-07-20T05:20:06.716Z,6.70
2018-07-20T05:22:34.061Z,6.60
2018-07-20T05:25:01.016Z,7.30
2018-07-20T05:27:33.964Z,6.63
2018-07-20T05:30:00.950Z,6.97
2018-07-20T05:32:27.942Z,6.77
2018-07-20T05:34:55.011Z,6.70
2018-07-20T05:37:22.067Z,6.40
2018-07-20T05:39:50.046Z,7.30
2018-07-20T05:42:17.118Z,6.80
2018-07-20T05:44:44.928Z,7.20
2018-07-20T05:49:51.286Z,7.90
2018-07-20T05:52:18.343Z,7.90
2018-07-20T05:54:45.247Z,6.83
2018-07-20T05:57:12.305Z,7.20
2018-07-20T05:59:39.283Z,7.63
2018-07-20T06:02:06.349Z,7.70
2018-07-20T06:04:33.391Z,7.53
2018-07-20T06:07:02.440Z,7.33
2018-07-20T06:09:27.401Z,8.33
2018-07-20T06:11:54.432Z,8.43
2018-07-20T06:14:21.440Z,9.80
2018-07-20T06:16:48.491Z,10.43
2018-07-20T06:21:54.508Z,12.40
2018-07-20T06:24:22.583Z,9.53
2018-07-20T06:26:49.568Z,8.90
2018-07-20T06:29:17.508Z,8.30
2018-07-20T06:31:44.561Z,8.57
2018-07-20T06:34:11.545Z,8.33
2018-07-20T06:36:38.549Z,8.97
2018-07-20T06:39:05.577Z,9.40
2018-07-20T06:41:32.566Z,8.50
2018-07-20T06:43:59.622Z,8.93
2018-07-20T06:46:26.681Z,8.10
2018-07-20T06:48:53.659Z,7.40
2018-07-20T06:51:21.006Z,7.50
2018-07-20T06:53:48.001Z,7.77
2018-07-20T06:56:14.984Z,7.33
2018-07-20T06:58:42.002Z,8.43
2018-07-20T07:01:09.349Z,7.43
2018-07-20T07:03:36.303Z,7.10
2018-07-20T07:06:03.288Z,6.63
2018-07-20T07:08:30.341Z,7.40
2018-07-20T07:10:57.332Z,7.53
2018-07-20T07:13:24.315Z,6.67
2018-07-20T07:15:52.302Z,7.77
2018-07-20T07:18:19.300Z,6.80
2018-07-20T07:20:46.283Z,7.17
2018-07-20T07:23:13.360Z,6.90
2018-07-20T07:25:40.341Z,6.80
2018-07-20T07:28:07.331Z,7.17
2018-07-20T07:30:34.350Z,6.80
2018-07-20T07:35:40.004Z,7.17
2018-07-20T07:38:06.914Z,6.40
2018-07-20T07:40:33.890Z,6.17
2018-07-20T07:43:00.910Z,7.10
2018-07-20T07:45:27.890Z,6.57
2018-07-20T07:47:54.867Z,6.10
2018-07-20T07:50:21.921Z,6.13
2018-07-20T07:52:48.902Z,6.10
2018-07-20T07:55:15.891Z,6.97
2018-07-20T07:57:43.286Z,5.83
2018-07-20T08:00:16.173Z,6.37
2018-07-20T08:02:43.236Z,6.33
2018-07-20T08:05:10.217Z,6.63
2018-07-20T08:07:37.207Z,6.50
2018-07-20T08:10:04.336Z,6.13
2018-07-20T08:15:02.331Z,6.30
2018-07-20T08:17:29.391Z,5.93
2018-07-20T08:19:56.464Z,5.73
2018-07-20T08:22:27.442Z,5.80
2018-07-20T08:24:54.457Z,6.40
2018-07-20T08:27:21.439Z,5.70
2018-07-20T08:29:48.427Z,6.27
2018-07-20T08:32:15.453Z,5.77
2018-07-20T08:34:43.312Z,5.97
2018-07-20T08:39:50.792Z,6.37
2018-07-20T08:42:16.988Z,5.90
2018-07-20T08:44:43.979Z,5.00
2018-07-20T08:47:11.042Z,4.80
2018-07-20T08:49:38.024Z,5.57
2018-07-20T08:52:05.147Z,5.77
2018-07-20T08:54:32.258Z,5.40
2018-07-20T08:56:59.234Z,6.70
2018-07-20T08:59:27.581Z,5.70
2018-07-20T09:01:54.904Z,5.90
2018-07-20T09:04:21.850Z,5.10
2018-07-20T09:06:48.832Z,5.93
2018-07-20T09:09:15.854Z,5.57
2018-07-20T09:11:42.847Z,5.20
2018-07-20T09:14:09.819Z,5.70
2018-07-20T09:16:36.877Z,5.47
2018-07-20T09:19:03.850Z,5.50
2018-07-20T09:21:30.828Z,5.67
2018-07-20T09:23:57.847Z,4.83
2018-07-20T09:26:24.836Z,5.53
2018-07-20T09:28:51.808Z,5.23
2018-07-20T09:31:18.828Z,5.13
2018-07-20T09:33:45.817Z,4.93
2018-07-20T09:36:12.808Z,4.40
2018-07-20T09:38:39.857Z,5.23
2018-07-20T09:43:45.374Z,4.57
2018-07-20T09:46:12.350Z,5.00
2018-07-20T09:48:39.334Z,4.43
2018-07-20T09:51:06.427Z,4.50
2018-07-20T09:53:33.415Z,4.60
2018-07-20T09:56:00.399Z,4.30
2018-07-20T09:58:27.450Z,4.40
2018-07-20T10:00:54.429Z,4.10
2018-07-20T10:03:21.412Z,4.00
2018-07-20T10:05:48.479Z,4.30
2018-07-20T10:08:15.459Z,4.77
2018-07-20T10:10:43.392Z,4.63
2018-07-20T10:13:10.420Z,4.47
2018-07-20T10:15:37.395Z,4.00
2018-07-20T10:18:04.487Z,4.53
2018-07-20T10:20:31.514Z,3.97
2018-07-20T10:22:58.505Z,3.77
2018-07-20T10:25:26.426Z,4.50
2018-07-20T10:27:53.500Z,4.43
2018-07-20T10:30:21.142Z,3.33
2018-07-20T10:32:48.128Z,3.80
2018-07-20T10:35:15.158Z,3.78
2018-07-20T10:37:43.091Z,4.17
2018-07-20T10:40:10.086Z,4.17
2018-07-20T10:42:37.161Z,3.90
2018-07-20T10:45:04.144Z,4.40
2018-07-20T10:47:32.461Z,4.10
2018-07-20T10:49:59.502Z,4.03
2018-07-20T10:55:06.458Z,4.73
2018-07-20T10:57:33.436Z,5.47
2018-07-20T11:00:00.421Z,4.65
2018-07-20T11:02:27.453Z,4.18
2018-07-20T11:04:54.440Z,4.70
2018-07-20T11:07:23.073Z,5.12
2018-07-20T11:09:50.143Z,4.93
2018-07-20T11:12:17.126Z,4.60
2018-07-20T11:14:44.548Z,4.30
2018-07-20T11:17:11.538Z,4.00
2018-07-20T11:19:38.523Z,3.97
2018-07-20T11:22:05.503Z,3.92
2018-07-20T11:24:32.557Z,4.18
2018-07-20T11:26:59.539Z,3.95
2018-07-20T11:29:26.524Z,4.45
2018-07-20T11:31:53.554Z,3.85
2018-07-20T11:34:20.574Z,3.60
2018-07-20T11:36:47.520Z,3.92
2018-07-20T11:39:14.581Z,3.75
2018-07-20T11:41:41.742Z,3.78
2018-07-20T11:44:08.732Z,3.80
2018-07-20T11:46:35.756Z,3.50
2018-07-20T11:49:02.744Z,3.53
2018-07-20T11:51:29.730Z,3.50
2018-07-20T11:53:56.756Z,3.97
2018-07-20T11:56:23.745Z,3.62
2018-07-20T11:58:50.725Z,3.62
2018-07-20T12:01:17.762Z,3.92
2018-07-20T12:06:23.266Z,4.00
2018-07-20T12:08:50.259Z,3.50
2018-07-20T12:11:17.243Z,4.03
2018-07-20T12:13:45.123Z,3.83
2018-07-20T12:16:12.114Z,3.33
2018-07-20T12:18:39.100Z,3.90
2018-07-20T12:21:06.175Z,3.97
2018-07-20T12:23:34.000Z,3.35
2018-07-20T12:26:01.073Z,3.87
2018-07-20T12:28:28.105Z,3.60
2018-07-20T12:30:55.977Z,3.80
2018-07-20T12:33:22.953Z,3.65
2018-07-20T12:35:49.997Z,3.20
2018-07-20T12:38:16.992Z,3.37
2018-07-20T12:40:43.982Z,3.30
2018-07-20T12:43:11.042Z,3.97
2018-07-20T12:45:38.306Z,4.30
2018-07-20T12:48:05.181Z,3.92
2018-07-20T12:50:32.303Z,4.22
2018-07-20T12:52:59.281Z,4.03
2018-07-20T12:55:26.273Z,3.62
2018-07-20T12:57:53.339Z,4.27
2018-07-20T13:00:20.331Z,4.00
2018-07-20T13:02:47.328Z,4.10
2018-07-20T13:05:14.390Z,3.80
2018-07-20T13:07:41.383Z,3.53
2018-07-20T13:10:08.380Z,3.50
2018-07-20T13:12:35.504Z,3.80
2018-07-20T13:17:41.398Z,3.73
2018-07-20T13:20:08.288Z,3.72
2018-07-20T13:22:35.281Z,3.85
2018-07-20T13:25:02.410Z,3.83
2018-07-20T13:27:29.334Z,3.65
2018-07-20T13:29:56.316Z,3.70
2018-07-20T13:32:24.303Z,3.58
2018-07-20T13:34:51.287Z,3.78
2018-07-20T13:37:18.296Z,3.05
2018-07-20T13:39:45.357Z,3.75
2018-07-20T13:42:12.349Z,3.83
2018-07-20T13:44:40.168Z,3.35
2018-07-20T13:47:07.194Z,3.33
2018-07-20T13:49:34.179Z,3.60
2018-07-20T13:52:01.161Z,3.60
2018-07-20T13:54:28.276Z,3.80
2018-07-20T13:56:55.265Z,3.30
2018-07-20T13:59:22.255Z,3.00
2018-07-20T14:01:49.312Z,3.55
2018-07-20T14:04:17.188Z,3.28
2018-07-20T14:06:45.846Z,3.42
2018-07-20T14:09:12.879Z,3.37
2018-07-20T14:11:39.854Z,3.15
2018-07-20T14:14:06.838Z,3.78
2018-07-20T14:16:33.857Z,3.90
2018-07-20T14:19:00.882Z,4.40
2018-07-20T14:24:06.378Z,4.60
2018-07-20T14:26:33.450Z,4.00
2018-07-20T14:29:01.393Z,3.72
2018-07-20T14:31:28.471Z,3.83
2018-07-20T14:33:55.437Z,4.00
2018-07-20T14:36:22.443Z,3.78
2018-07-20T14:38:49.473Z,3.85
2018-07-20T14:41:16.451Z,3.58
2018-07-20T14:43:43.434Z,3.53
2018-07-20T14:46:10.469Z,3.78
2018-07-20T14:48:37.458Z,4.03
2018-07-20T14:51:04.457Z,3.80
2018-07-20T14:53:31.512Z,6.28
2018-07-20T14:55:58.498Z,4.03
2018-07-20T14:58:25.487Z,4.60
2018-07-20T15:00:52.511Z,4.63
2018-07-20T15:03:19.508Z,4.97
2018-07-20T15:05:46.503Z,6.00
2018-07-20T15:08:13.562Z,5.73
2018-07-20T15:10:40.557Z,5.03
2018-07-20T15:13:07.549Z,3.80
2018-07-20T15:15:35.463Z,4.00
2018-07-20T15:18:02.500Z,4.47
2018-07-20T15:20:29.467Z,4.30
2018-07-20T15:22:57.331Z,3.73
2018-07-20T15:25:24.404Z,3.70
2018-07-20T15:27:51.646Z,3.70
2018-07-20T15:30:18.713Z,3.50
2018-07-20T15:32:45.702Z,3.80
2018-07-20T15:35:13.583Z,3.83
2018-07-20T15:37:40.614Z,3.80
2018-07-20T15:42:46.158Z,4.17
2018-07-20T15:45:13.148Z,4.00
2018-07-20T15:47:40.130Z,3.97
2018-07-20T15:50:07.154Z,3.50
2018-07-20T15:55:01.132Z,3.23
2018-07-20T15:57:28.197Z,2.97
2018-07-20T15:59:55.322Z,3.60
2018-07-20T16:02:22.191Z,3.40
2018-07-20T16:04:50.081Z,3.40
2018-07-20T16:07:17.445Z,4.10
2018-07-20T16:09:44.428Z,4.10
2018-07-20T16:12:11.495Z,4.37
2018-07-20T16:14:38.475Z,3.80
2018-07-20T16:17:05.477Z,4.20
2018-07-20T16:19:32.479Z,4.80
2018-07-20T16:22:00.501Z,5.07
2018-07-20T16:24:27.490Z,5.90
2018-07-20T16:26:54.543Z,6.30
2018-07-20T16:29:21.526Z,6.57
2018-07-20T16:31:49.357Z,5.03
2018-07-20T16:34:16.388Z,5.63
2018-07-20T16:36:43.372Z,4.33
2018-07-20T16:39:10.351Z,3.97
2018-07-20T16:41:37.415Z,4.30
2018-07-20T16:44:04.391Z,3.53
2018-07-20T16:49:09.932Z,4.13
2018-07-20T16:51:36.907Z,3.17
2018-07-20T16:54:03.946Z,4.03
2018-07-20T16:56:31.795Z,3.43
2018-07-20T16:58:58.786Z,4.50
2018-07-20T17:01:25.769Z,4.30
2018-07-20T17:03:52.837Z,4.47
2018-07-20T17:06:19.917Z,3.97
2018-07-20T17:08:46.908Z,3.10
2018-07-20T17:11:13.949Z,3.47
2018-07-20T17:13:40.928Z,3.93
2018-07-20T17:16:07.912Z,3.90
2018-07-20T17:18:34.974Z,4.47
2018-07-20T17:21:01.965Z,4.80
2018-07-20T17:23:29.128Z,5.20
2018-07-20T17:25:56.177Z,5.47
2018-07-20T17:28:23.995Z,5.10
2018-07-20T17:30:50.982Z,5.83
2018-07-20T17:33:18.057Z,5.73
2018-07-20T17:35:45.920Z,5.80
2018-07-20T17:38:12.928Z,6.00
2018-07-20T17:40:39.993Z,6.70
2018-07-20T17:43:06.992Z,6.43
2018-07-20T17:45:33.980Z,6.40
2018-07-20T17:48:01.024Z,6.57
2018-07-20T17:50:28.020Z,6.27
2018-07-20T17:52:55.756Z,5.77
2018-07-20T17:55:22.842Z,5.90
2018-07-20T18:00:29.330Z,5.90
2018-07-20T18:02:56.309Z,4.60
2018-07-20T18:05:23.301Z,4.13
2018-07-20T18:07:50.410Z,5.30
2018-07-20T18:10:17.434Z,5.27
2018-07-20T18:12:44.428Z,5.23
2018-07-20T18:15:11.480Z,5.33
2018-07-20T18:17:38.465Z,4.90
2018-07-20T18:20:05.501Z,4.73
2018-07-20T18:22:32.704Z,4.43
2018-07-20T18:24:59.693Z,4.50
2018-07-20T18:27:26.683Z,5.03
2018-07-20T18:29:53.793Z,4.70
2018-07-20T18:32:20.776Z,4.27
2018-07-20T18:34:47.755Z,4.73
2018-07-20T18:37:14.814Z,4.73
2018-07-20T18:39:45.302Z,5.10
2018-07-20T18:42:12.305Z,5.53
2018-07-20T18:44:39.403Z,4.77
2018-07-20T18:49:46.594Z,5.43
2018-07-20T18:52:13.584Z,4.93
2018-07-20T18:54:40.569Z,4.93
2018-07-20T18:57:07.661Z,5.23
2018-07-20T18:59:34.653Z,4.50
2018-07-20T19:02:01.688Z,4.50
2018-07-20T19:04:30.510Z,5.27
2018-07-20T19:06:57.497Z,4.77
2018-07-20T19:09:24.480Z,4.77
2018-07-20T19:11:51.504Z,4.60
2018-07-20T19:14:18.502Z,4.50
2018-07-20T19:16:45.477Z,5.10
2018-07-20T19:19:12.502Z,5.10
2018-07-20T19:21:39.490Z,5.03
2018-07-20T19:24:06.507Z,4.97
2018-07-20T19:26:33.665Z,4.73
2018-07-20T19:29:00.667Z,5.00
2018-07-20T19:31:27.693Z,5.00
2018-07-20T19:33:54.914Z,4.70
2018-07-20T19:36:21.887Z,6.50
2018-07-20T19:38:48.954Z,5.10
2018-07-20T19:41:17.271Z,4.93
2018-07-20T19:43:42.991Z,4.63
2018-07-20T19:46:09.976Z,5.93
2018-07-20T19:48:37.108Z,5.20
2018-07-20T19:51:04.954Z,4.50
2018-07-20T19:53:35.345Z,3.43
2018-07-20T19:56:02.386Z,3.80
2018-07-20T19:58:29.384Z,3.40
2018-07-20T20:00:56.402Z,3.70
2018-07-20T20:03:24.355Z,3.77
2018-07-20T20:08:34.839Z,4.40
2018-07-20T20:11:02.590Z,4.77
2018-07-20T20:13:29.575Z,4.13
2018-07-20T20:15:56.657Z,4.10
2018-07-20T20:18:23.646Z,4.40
2018-07-20T20:20:50.632Z,4.17
2018-07-20T20:23:18.638Z,4.57
2018-07-20T20:25:45.676Z,4.67
2018-07-20T20:28:12.614Z,5.53
2018-07-20T20:30:39.645Z,5.07
2018-07-20T20:33:06.622Z,5.90
2018-07-20T20:35:33.596Z,6.37
2018-07-20T20:38:00.662Z,6.60
2018-07-20T20:40:27.983Z,6.57
2018-07-20T20:42:54.926Z,6.90
2018-07-20T20:45:21.953Z,6.77
2018-07-20T20:47:49.192Z,6.50
2018-07-20T20:50:15.924Z,7.53
2018-07-20T20:52:42.990Z,7.40
2018-07-20T20:55:10.061Z,7.13
2018-07-20T20:57:38.866Z,8.30
2018-07-20T21:00:05.904Z,7.40
2018-07-20T21:02:32.887Z,7.17
2018-07-20T21:04:59.879Z,7.40
2018-07-20T21:07:26.957Z,7.20
2018-07-20T21:09:53.941Z,8.20
2018-07-20T21:12:20.957Z,7.73
2018-07-20T21:14:47.966Z,7.37
2018-07-20T21:17:14.946Z,7.50
2018-07-20T21:19:42.022Z,7.23
2018-07-20T21:22:09.049Z,7.07
2018-07-20T21:24:36.032Z,7.30
2018-07-20T21:27:03.096Z,6.73
2018-07-20T21:32:08.612Z,6.95
2018-07-20T21:34:35.648Z,6.50
2018-07-20T21:37:02.624Z,6.57
2018-07-20T21:39:29.926Z,6.77
2018-07-20T21:41:56.909Z,6.80
2018-07-20T21:44:23.887Z,7.00
2018-07-20T21:46:50.880Z,6.63
2018-07-20T21:49:17.940Z,6.63
2018-07-20T21:51:45.021Z,7.63
2018-07-20T21:54:12.010Z,8.80
2018-07-20T21:56:39.049Z,8.13
2018-07-20T21:59:06.038Z,8.40
2018-07-20T22:01:33.023Z,8.50
2018-07-20T22:04:00.058Z,8.43
2018-07-20T22:06:30.190Z,8.20
2018-07-20T22:08:57.180Z,8.87
2018-07-20T22:11:24.237Z,9.30
2018-07-20T22:13:51.227Z,9.03
2018-07-20T22:16:19.048Z,8.77
2018-07-20T22:18:46.167Z,8.33
2018-07-20T22:21:13.161Z,8.40
2018-07-20T22:23:42.475Z,8.33
2018-07-20T22:26:09.026Z,8.00
2018-07-20T22:28:36.790Z,8.50
2018-07-20T22:33:43.756Z,8.13
2018-07-20T22:38:55.002Z,8.98
2018-07-20T22:41:21.999Z,8.07
2018-07-20T22:43:48.993Z,8.13
2018-07-20T22:46:16.043Z,8.07
2018-07-20T22:48:43.024Z,7.17
2018-07-20T22:51:10.012Z,7.93
2018-07-20T22:53:37.042Z,7.17
2018-07-20T22:56:04.025Z,7.10
2018-07-20T22:58:31.954Z,7.60
2018-07-20T23:01:00.778Z,6.20
2018-07-20T23:03:27.790Z,5.83
2018-07-20T23:05:55.709Z,7.10
2018-07-20T23:08:23.706Z,6.33
2018-07-20T23:10:50.700Z,5.90
2018-07-20T23:13:17.771Z,6.57
2018-07-20T23:15:45.674Z,5.80
2018-07-20T23:18:14.012Z,6.70
2018-07-20T23:20:41.796Z,6.77
2018-07-20T23:23:08.785Z,7.03
2018-07-20T23:25:35.790Z,7.03
2018-07-20T23:28:02.780Z,6.83
2018-07-20T23:30:29.825Z,7.70
2018-07-20T23:32:56.795Z,7.47
2018-07-20T23:35:23.820Z,7.20
2018-07-20T23:37:50.897Z,7.93
2018-07-20T23:40:18.206Z,8.03
2018-07-20T23:42:45.565Z,7.57
2018-07-20T23:45:12.596Z,7.77
2018-07-20T23:47:39.581Z,7.30
2018-07-20T23:52:45.868Z,7.10
2018-07-20T23:55:12.851Z,6.63
2018-07-20T23:57:40.665Z,6.07
